Last 24 Hours

Canyon Lodge - 8,343ft

5 Minute Data | America/Los_Angeles
as of 5/6/26 9:34 AM PDT
Date & Time Temp (°F) RH (%) Dew Pt (°F) Wet Bulb (°F) Wind Dir (°) Wind Spd (mph) Wind Gust (mph) Wind Gst Dir (°)
5/6/26 - 0930 48.9 38 24.2 39.0 NNW | 347 4.7 11.4 NNW | 330
5/6/26 - 0925 50.2 37 25.0 39.9 NNE | 14 2.7 6.7 NE | 38
5/6/26 - 0920 49.2 37 24.2 39.2 NNE | 27 3.4 9.0 NNE | 32
5/6/26 - 0915 49.5 37 24.6 39.4 N | 6 2.8 7.1 NE | 41
5/6/26 - 0910 49.2 38 24.7 39.3 NNW | 332 5.6 11.0 N | 1
5/6/26 - 0905 48.3 37 23.5 38.5 N | 354 4.2 7.7 NNW | 332
5/6/26 - 0900 48.6 36 23.0 38.5 N | 350 1.8 6.8 NNW | 347
5/6/26 - 0855 48.1 36 22.4 38.1 NNE | 18 3.3 7.3 NE | 41
5/6/26 - 0850 48.0 36 22.2 38.0 NNE | 26 3.9 8.2 NNE | 21
5/6/26 - 0845 48.2 37 23.0 38.3 N | 356 3.2 8.6 NNE | 17
5/6/26 - 0840 47.8 37 22.7 38.0 NNE | 25 3.1 9.9 N | 1
5/6/26 - 0835 47.7 37 22.6 38.0 NNE | 25 4.8 10.1 NE | 43
5/6/26 - 0830 47.7 38 23.3 38.1 NNW | 346 4.5 8.6 NNW | 345
5/6/26 - 0825 47.8 38 23.4 38.2 NNE | 13 2.9 10.1 N | 8
5/6/26 - 0820 47.2 38 22.8 37.7 N | 0 3.7 6.6 N | 0
5/6/26 - 0815 47.0 38 22.9 37.6 N | 4 4.5 8.7 N | 353
5/6/26 - 0810 47.0 38 22.7 37.6 NE | 36 4.8 9.9 N | 0
5/6/26 - 0805 46.9 38 22.6 37.5 NNE | 17 3.2 7.0 N | 7
5/6/26 - 0800 46.7 39 22.9 37.5 NNE | 14 4.1 9.0 NNE | 27
5/6/26 - 0755 46.8 40 23.7 37.8 N | 356 1.8 4.5 NW | 312
5/6/26 - 0750 47.0 40 23.8 37.9 N | 3 0.1 2.2 N | 8
5/6/26 - 0745 45.7 41 23.4 37.1 NNW | 332 2.1 4.6 NNW | 341
5/6/26 - 0740 44.3 40 21.7 35.8 NNW | 329 0.7 4.1 NW | 319
5/6/26 - 0735 44.1 39 20.7 35.5 N | 359 0.8 4.7 N | 0
5/6/26 - 0730 42.4 40 20.1 34.4 N | 0 0.0 0.0 SSE | 164
5/6/26 - 0725 42.0 39 19.1 33.9 SSE | 161 0.0 0.3 SSE | 167
5/6/26 - 0720 42.3 40 19.5 34.2 N | 0 0.0 0.0 ENE | 72
5/6/26 - 0715 41.4 39 18.2 33.3 N | 0 0.0 0.0 S | 187
5/6/26 - 0710 40.2 40 17.8 32.5 SSE | 155 0.1 2.0 SSE | 151
5/6/26 - 0705 40.6 41 18.5 32.9 S | 169 0.2 1.4 SSE | 147
5/6/26 - 0700 40.2 40 18.0 32.6 SE | 139 0.1 2.2 SE | 136
5/6/26 - 0655 39.9 41 18.0 32.4 WNW | 295 0.0 1.1 WNW | 287
5/6/26 - 0650 39.3 40 17.0 31.8 W | 274 0.1 0.8 SSW | 193
5/6/26 - 0645 38.6 40 16.5 31.2 N | 0 0.0 0.0 E | 90
5/6/26 - 0640 38.3 40 15.9 31.0 N | 0 0.0 0.0 E | 90
5/6/26 - 0635 37.8 39 15.2 30.4 N | 0 0.0 0.0 SE | 129
5/6/26 - 0630 37.7 39 14.9 30.4 S | 174 0.0 0.3 S | 174
5/6/26 - 0625 37.5 40 15.3 30.3 SSW | 205 0.0 0.0 SSW | 205
5/6/26 - 0620 37.0 39 14.6 29.9 SSW | 195 0.3 2.4 S | 177
5/6/26 - 0615 36.6 39 14.0 29.5 SSW | 193 0.2 2.2 S | 174
5/6/26 - 0610 36.5 40 14.2 29.4 SSW | 205 0.2 1.2 S | 174
5/6/26 - 0605 36.7 39 14.3 29.6 SSW | 197 0.0 0.9 SSW | 194
5/6/26 - 0600 36.9 40 14.7 29.8 SSW | 204 0.7 2.7 S | 185
5/6/26 - 0555 36.1 39 13.8 29.2 SSW | 194 0.2 1.1 NNE | 28
5/6/26 - 0550 35.9 40 13.9 29.0 SSW | 194 0.3 2.3 SSW | 211
5/6/26 - 0545 36.3 39 13.8 29.3 SSW | 209 0.2 1.6 SSW | 212
5/6/26 - 0540 36.0 38 12.9 28.9 S | 187 0.0 0.2 S | 174
5/6/26 - 0535 35.9 38 12.9 28.8 N | 0 0.0 0.0 NW | 314
5/6/26 - 0530 36.0 40 13.9 29.1 S | 174 0.0 0.2 S | 178
5/6/26 - 0525 36.5 39 13.7 29.4 N | 0 0.0 0.0 SE | 136
5/6/26 - 0520 37.0 39 14.4 29.9 W | 263 0.0 1.1 W | 261
5/6/26 - 0515 37.9 39 15.4 30.6 WSW | 251 0.3 2.3 WSW | 254
5/6/26 - 0510 37.5 39 14.9 30.2 SW | 232 0.1 1.2 WSW | 254
5/6/26 - 0505 37.8 39 15.3 30.5 SW | 230 0.7 2.2 S | 189
5/6/26 - 0500 37.5 39 14.9 30.2 W | 263 0.2 1.6 WSW | 257
5/6/26 - 0455 37.4 39 14.8 30.2 W | 260 0.4 2.2 WSW | 257
5/6/26 - 0450 37.6 39 15.1 30.3 WSW | 250 0.4 2.6 WSW | 244
5/6/26 - 0445 37.2 39 14.5 29.9 SSW | 212 0.7 3.3 S | 172
5/6/26 - 0440 36.8 40 14.5 29.8 WSW | 255 0.2 1.9 WSW | 258
5/6/26 - 0435 37.2 38 14.2 29.9 WSW | 258 0.4 2.2 W | 266
5/6/26 - 0430 36.4 38 13.2 29.2 W | 278 0.0 0.7 W | 272
5/6/26 - 0425 36.2 39 13.4 29.1 WSW | 252 0.1 1.3 W | 266
5/6/26 - 0420 36.4 39 14.0 29.3 S | 183 0.1 3.2 SSE | 157
5/6/26 - 0415 36.4 40 14.5 29.4 N | 0 0.0 0.0 SSE | 167
5/6/26 - 0410 36.7 38 13.7 29.5 S | 185 0.2 2.0 S | 190
5/6/26 - 0405 36.9 38 13.8 29.6 S | 178 0.2 1.8 S | 181
5/6/26 - 0400 37.2 39 14.2 29.9 S | 186 0.6 2.6 S | 176
5/6/26 - 0355 37.5 39 14.6 30.2 SSE | 155 0.0 1.4 S | 175
5/6/26 - 0350 37.8 40 15.7 30.6 S | 186 0.1 3.0 S | 190
5/6/26 - 0345 37.9 40 15.6 30.6 ESE | 119 0.0 0.2 ESE | 106
5/6/26 - 0340 38.1 40 15.6 30.8 N | 352 0.0 0.2 N | 352
5/6/26 - 0335 38.2 39 15.6 30.8 WSW | 258 0.2 2.1 WSW | 258
5/6/26 - 0330 38.0 39 15.4 30.6 N | 0 0.0 0.0 WNW | 294
5/6/26 - 0325 38.6 39 15.8 31.1 WSW | 252 0.5 2.4 W | 259
5/6/26 - 0320 37.8 39 14.8 30.4 WSW | 255 0.2 2.3 WSW | 249
5/6/26 - 0315 37.2 38 14.2 29.9 WSW | 246 0.2 1.8 WSW | 241
5/6/26 - 0310 35.8 38 12.5 28.7 SW | 224 0.1 1.1 SSW | 201
5/6/26 - 0305 36.4 38 13.2 29.2 S | 188 0.4 2.4 S | 175
5/6/26 - 0300 36.4 38 13.4 29.2 N | 0 0.0 0.0 SW | 228
5/6/26 - 0255 36.8 38 13.3 29.5 SSW | 196 0.1 2.0 S | 170
5/6/26 - 0250 36.9 37 13.4 29.6 SSW | 209 0.1 1.8 SSW | 210
5/6/26 - 0245 36.7 38 13.2 29.4 WSW | 244 0.2 1.7 WSW | 238
5/6/26 - 0240 36.5 38 13.0 29.2 SSW | 211 0.4 2.2 SSW | 197
5/6/26 - 0235 36.7 38 13.4 29.4 SW | 222 0.4 1.8 SSW | 202
5/6/26 - 0230 36.7 38 13.3 29.4 SW | 218 0.5 2.2 SSW | 194
5/6/26 - 0225 36.6 37 13.0 29.2 SW | 215 1.7 3.0 W | 264
5/6/26 - 0220 35.9 38 12.8 28.8 SSW | 203 0.7 3.0 S | 182
5/6/26 - 0215 36.0 38 13.1 28.9 SSW | 206 0.1 1.3 SSW | 200
5/6/26 - 0210 36.0 37 12.1 28.7 SSW | 194 1.2 3.5 S | 183
5/6/26 - 0205 36.4 38 12.9 29.1 SSW | 200 0.3 2.2 SSW | 194
5/6/26 - 0200 36.2 36 12.1 28.9 SSW | 199 1.1 2.5 SSW | 203
5/6/26 - 0155 36.9 37 12.8 29.4 SSW | 204 1.7 3.0 S | 174
5/6/26 - 0150 37.3 37 13.5 29.8 SSW | 197 1.4 3.8 S | 190
5/6/26 - 0145 37.4 37 13.4 29.9 SSW | 198 0.9 2.0 S | 180
5/6/26 - 0140 38.2 37 14.2 30.5 S | 189 0.9 2.5 S | 173
5/6/26 - 0135 39.6 38 16.0 31.8 SSW | 208 0.4 2.0 SSW | 207
5/6/26 - 0130 40.3 39 17.2 32.5 W | 274 0.1 1.5 W | 262
5/6/26 - 0125 40.8 39 17.5 32.8 WNW | 297 0.3 2.0 NW | 324
5/6/26 - 0120 41.0 38 17.6 33.0 NW | 308 1.1 3.9 NW | 309
5/6/26 - 0115 41.4 37 17.2 33.1 NW | 317 1.4 3.4 NW | 325
5/6/26 - 0110 41.9 37 17.2 33.4 NNW | 339 2.1 6.8 NNW | 328
5/6/26 - 0105 42.1 37 17.8 33.6 NNW | 336 3.4 6.5 N | 349
5/6/26 - 0100 42.4 37 18.0 33.9 NNW | 343 3.5 7.1 NNE | 29
5/6/26 - 0055 42.2 37 17.8 33.7 NW | 318 4.7 11.6 NW | 313
5/6/26 - 0050 41.6 37 17.1 33.2 NW | 313 4.0 12.4 NNW | 330
5/6/26 - 0045 39.7 36 14.8 31.6 WNW | 302 1.8 10.6 NW | 309
5/6/26 - 0040 39.0 36 14.0 31.0 E | 90 0.3 2.2 W | 267
5/6/26 - 0035 39.2 37 14.9 31.2 WNW | 298 0.6 4.2 NW | 313
5/6/26 - 0030 38.6 36 14.2 30.7 W | 280 0.0 0.6 W | 279
5/6/26 - 0025 37.9 35 12.7 30.0 N | 0 0.0 0.0 WSW | 248
5/6/26 - 0020 37.8 35 12.4 29.9 ESE | 113 0.0 0.6 SE | 131
5/6/26 - 0015 38.5 35 13.1 30.4 E | 79 0.0 0.7 SW | 214
5/6/26 - 0010 38.6 36 13.8 30.7 WSW | 241 0.5 2.5 W | 265
5/6/26 - 0005 39.0 36 14.5 31.1 WSW | 242 0.6 2.0 WSW | 248
5/6/26 - 0000 39.6 36 15.0 31.6 WSW | 248 0.8 2.1 WSW | 245
5/5/26 - 2355 40.7 36 16.0 32.4 W | 271 1.0 2.7 WSW | 243
5/5/26 - 2350 41.4 36 16.8 33.0 NNW | 327 1.0 4.9 WNW | 287
5/5/26 - 2345 41.4 37 16.8 33.0 NW | 304 0.7 3.9 NW | 307
5/5/26 - 2340 41.6 36 16.8 33.1 NNW | 331 1.8 5.4 N | 353
5/5/26 - 2335 40.4 36 15.6 32.2 W | 268 1.6 6.1 N | 1
5/5/26 - 2330 37.9 37 13.8 30.2 S | 176 0.5 2.7 S | 186
5/5/26 - 2325 37.8 37 13.8 30.2 NE | 48 0.6 2.4 SSW | 200
5/5/26 - 2320 38.1 38 14.7 30.6 W | 273 0.5 3.0 NW | 310
5/5/26 - 2315 37.5 38 14.5 30.2 SSW | 199 0.0 0.5 S | 187
5/5/26 - 2310 37.5 38 14.2 30.1 W | 271 0.0 0.3 W | 273
5/5/26 - 2305 38.1 37 14.2 30.5 SSW | 192 1.0 4.6 S | 176
5/5/26 - 2300 38.7 37 14.9 31.0 WSW | 253 0.4 2.2 W | 269
5/5/26 - 2255 38.2 37 14.0 30.5 WNW | 292 0.6 2.7 NNW | 341
5/5/26 - 2250 38.2 36 13.9 30.5 SW | 216 0.2 2.0 SSW | 204
5/5/26 - 2245 37.8 35 12.5 29.9 S | 190 1.6 3.4 S | 191
5/5/26 - 2240 37.0 35 12.0 29.4 SSW | 203 0.3 2.1 SSW | 198
5/5/26 - 2235 36.6 36 12.1 29.1 ENE | 74 0.2 1.6 S | 173
5/5/26 - 2230 36.3 36 12.1 28.9 N | 0 0.0 0.0 SSW | 194
5/5/26 - 2225 36.7 36 12.2 29.2 SSW | 198 0.2 1.5 SSW | 203
5/5/26 - 2220 36.5 36 11.7 29.0 NW | 326 0.4 3.2 NW | 315
5/5/26 - 2215 36.8 35 12.0 29.2 NNE | 30 0.6 3.5 NW | 320
5/5/26 - 2210 37.3 36 12.6 29.6 W | 276 0.3 1.9 W | 281
5/5/26 - 2205 38.0 35 12.8 30.1 W | 264 0.5 2.9 W | 261
5/5/26 - 2200 38.1 35 12.9 30.2 W | 274 0.2 1.6 W | 274
5/5/26 - 2155 38.0 34 12.2 30.0 SE | 141 1.0 3.4 SSE | 167
5/5/26 - 2150 39.3 35 14.0 31.1 SSW | 207 1.6 4.0 SSW | 209
5/5/26 - 2145 39.6 35 13.9 31.3 SSW | 206 2.4 4.2 SSW | 197
5/5/26 - 2140 39.4 36 14.4 31.3 SSW | 192 0.5 4.1 ENE | 62
5/5/26 - 2135 39.9 35 14.3 31.5 WSW | 252 1.5 3.1 W | 259
5/5/26 - 2130 39.5 36 14.6 31.4 W | 262 0.7 2.4 WNW | 290
5/5/26 - 2125 39.6 36 15.0 31.6 W | 273 0.4 1.8 WSW | 258
5/5/26 - 2120 39.4 36 14.7 31.4 WNW | 286 0.2 1.7 W | 261
5/5/26 - 2115 39.8 37 15.4 31.7 W | 260 0.6 2.2 W | 260
5/5/26 - 2110 39.5 37 15.5 31.6 S | 179 0.1 0.9 W | 262
5/5/26 - 2105 39.2 37 14.8 31.2 W | 271 0.1 1.7 WSW | 253
5/5/26 - 2100 39.6 36 14.9 31.5 WNW | 300 0.8 2.9 W | 279
5/5/26 - 2055 39.4 36 14.6 31.3 WSW | 251 0.8 2.9 WSW | 251
5/5/26 - 2050 39.4 36 14.5 31.3 SW | 217 0.7 2.8 SSW | 200
5/5/26 - 2045 39.6 36 14.8 31.5 SSW | 202 1.2 4.4 S | 188
5/5/26 - 2040 39.6 36 15.2 31.6 WNW | 288 0.1 1.3 NW | 313
5/5/26 - 2035 39.9 36 15.3 31.8 S | 176 0.2 1.9 S | 173
5/5/26 - 2030 39.9 36 15.3 31.8 SSW | 194 0.3 2.3 SSW | 201
5/5/26 - 2025 40.1 37 15.8 32.0 ESE | 116 0.1 1.7 E | 100
5/5/26 - 2020 40.2 36 15.6 32.0 NW | 326 0.6 3.3 NNW | 346
5/5/26 - 2015 40.0 36 15.5 31.9 WNW | 287 0.3 3.1 WNW | 289
5/5/26 - 2010 39.8 36 15.3 31.7 WNW | 283 0.0 0.5 NW | 307
5/5/26 - 2005 39.6 36 15.0 31.6 NW | 315 1.9 4.9 WNW | 285
5/5/26 - 2000 39.5 36 14.6 31.4 W | 262 0.3 1.6 WSW | 256
5/5/26 - 1955 39.2 35 14.1 31.1 SW | 220 0.0 0.3 SSW | 210
5/5/26 - 1950 39.3 36 14.4 31.2 N | 0 0.0 0.0 SW | 228
5/5/26 - 1945 39.9 37 15.4 31.8 WSW | 257 0.5 1.9 NW | 307
5/5/26 - 1940 39.5 37 15.3 31.5 WSW | 249 0.5 3.0 SSW | 200
5/5/26 - 1935 39.8 37 15.8 31.8 W | 266 0.1 1.4 W | 262
5/5/26 - 1930 40.1 37 16.1 32.1 W | 280 0.1 1.5 WNW | 288
5/5/26 - 1925 41.2 36 16.4 32.7 NW | 316 0.4 2.3 NNW | 328
5/5/26 - 1920 41.8 35 16.1 33.0 NNW | 334 2.1 5.1 N | 0
5/5/26 - 1915 41.9 35 16.2 33.1 NNW | 339 2.3 5.4 NNW | 338
5/5/26 - 1910 42.1 35 16.7 33.4 NW | 324 2.7 6.4 NW | 311
5/5/26 - 1905 42.2 35 16.4 33.4 NNW | 334 1.9 5.7 NNE | 15
5/5/26 - 1900 42.7 35 16.9 33.8 N | 354 3.2 8.9 NW | 311
5/5/26 - 1855 42.6 37 17.8 33.9 NW | 320 3.5 9.0 NW | 307
5/5/26 - 1850 42.7 36 17.8 34.0 NNW | 344 2.2 7.6 NW | 314
5/5/26 - 1845 42.7 36 17.3 33.8 NNW | 346 2.7 8.3 NW | 314
5/5/26 - 1840 42.7 36 17.4 33.9 NW | 324 2.7 8.0 WNW | 298
5/5/26 - 1835 42.7 36 17.9 34.0 NW | 319 4.9 12.0 NW | 315
5/5/26 - 1830 42.7 37 18.5 34.1 NW | 316 4.1 8.7 NW | 306
5/5/26 - 1825 42.7 37 18.0 34.0 NNW | 333 3.3 8.7 N | 8
5/5/26 - 1820 42.9 37 18.7 34.3 NNW | 327 1.9 4.8 WNW | 284
5/5/26 - 1815 42.7 38 18.8 34.2 NW | 313 5.7 10.1 NW | 324
5/5/26 - 1810 42.7 37 18.4 34.1 NNW | 328 4.5 11.8 NW | 319
5/5/26 - 1805 42.7 37 18.2 34.1 NNW | 334 3.4 9.1 NW | 316
5/5/26 - 1800 43.0 37 18.9 34.4 NW | 316 3.7 6.8 WNW | 285
5/5/26 - 1755 43.0 37 18.9 34.4 NW | 313 3.9 10.8 NW | 315
5/5/26 - 1750 43.0 37 18.3 34.3 NNW | 330 3.8 7.7 NW | 317
5/5/26 - 1745 43.8 37 19.0 34.8 WNW | 302 2.7 11.4 NW | 310
5/5/26 - 1740 44.3 36 19.4 35.3 N | 7 0.6 4.4 NNW | 348
5/5/26 - 1735 44.0 37 19.3 35.0 NNW | 343 0.3 2.2 NNW | 344
5/5/26 - 1730 43.6 37 18.8 34.7 N | 351 0.2 1.3 NNE | 23
5/5/26 - 1725 42.8 36 17.8 34.0 N | 352 3.5 8.3 N | 5
5/5/26 - 1720 43.6 37 19.0 34.8 NW | 310 1.7 6.2 WNW | 299
5/5/26 - 1715 43.0 37 18.6 34.4 NW | 318 3.1 8.9 NW | 320
5/5/26 - 1710 43.4 37 18.8 34.6 NW | 305 2.4 7.3 NW | 308
5/5/26 - 1705 42.5 37 17.9 33.9 NNW | 346 4.7 8.7 NNE | 16
5/5/26 - 1700 42.6 38 18.8 34.1 NNW | 329 4.3 8.3 NNW | 347
5/5/26 - 1655 42.3 38 18.6 34.0 NW | 326 5.7 10.5 NNW | 337
5/5/26 - 1650 43.0 39 19.6 34.6 NW | 322 1.4 6.6 NW | 317
5/5/26 - 1645 42.6 39 19.3 34.3 WNW | 293 1.9 4.4 NW | 304
5/5/26 - 1640 41.8 39 18.5 33.6 NW | 311 2.1 6.0 NW | 314
5/5/26 - 1635 42.1 38 18.4 33.8 WSW | 252 0.8 5.6 NW | 316
5/5/26 - 1630 40.4 38 17.0 32.5 NNW | 338 4.9 8.6 NNW | 340
5/5/26 - 1625 40.4 38 16.9 32.4 NNW | 329 5.0 13.4 NNW | 331
5/5/26 - 1620 41.4 39 18.0 33.3 WNW | 300 1.4 4.4 NNW | 332
5/5/26 - 1615 40.3 38 16.8 32.4 WSW | 256 2.4 6.1 SSW | 201
5/5/26 - 1610 40.4 38 16.7 32.4 NW | 321 2.1 9.6 NW | 323
5/5/26 - 1605 39.5 38 15.8 31.7 WNW | 285 2.6 10.5 NW | 318
5/5/26 - 1600 39.5 38 16.0 31.7 W | 275 1.3 5.5 NW | 310
5/5/26 - 1555 38.4 38 15.2 30.8 NNW | 327 3.0 7.8 NNW | 331
5/5/26 - 1550 38.2 38 15.1 30.7 NW | 315 4.8 12.0 NW | 316
5/5/26 - 1545 38.5 38 15.4 30.9 NW | 326 5.3 13.9 N | 0
5/5/26 - 1540 38.9 38 15.6 31.3 NW | 317 2.8 8.1 NW | 307
5/5/26 - 1535 39.2 38 16.0 31.5 NW | 314 3.6 9.3 NW | 312
5/5/26 - 1530 39.4 38 16.2 31.7 NW | 316 2.7 8.6 NW | 308
5/5/26 - 1525 39.2 38 15.8 31.4 NW | 313 5.4 11.4 NW | 317
5/5/26 - 1520 39.6 38 16.2 31.8 NW | 314 6.3 13.6 NW | 316
5/5/26 - 1515 40.3 38 16.5 32.3 N | 350 4.7 13.3 NW | 306
5/5/26 - 1510 40.2 38 16.9 32.3 NNW | 338 3.9 10.3 NW | 308
5/5/26 - 1505 39.9 39 17.0 32.1 NW | 319 5.9 12.8 NW | 306
5/5/26 - 1500 40.2 39 17.0 32.3 NW | 326 3.8 10.0 N | 10
5/5/26 - 1455 40.5 38 16.8 32.4 N | 6 6.0 11.0 N | 350
5/5/26 - 1450 40.8 39 17.6 32.8 NNW | 332 5.1 11.4 N | 0
5/5/26 - 1445 40.8 39 17.6 32.8 NNW | 347 2.6 8.0 NNE | 17
5/5/26 - 1440 39.6 39 16.6 31.9 NW | 308 0.4 2.8 NW | 307
5/5/26 - 1435 38.9 39 15.9 31.3 S | 190 0.6 3.2 SSW | 198
5/5/26 - 1430 38.6 40 16.1 31.2 WNW | 303 0.6 2.8 NW | 317
5/5/26 - 1425 39.1 39 16.4 31.6 NNW | 343 2.2 7.1 NNW | 336
5/5/26 - 1420 40.1 39 17.3 32.4 NW | 317 1.9 4.7 WNW | 292
5/5/26 - 1415 39.3 39 16.4 31.6 NW | 325 4.2 7.9 NW | 314
5/5/26 - 1410 39.3 39 16.2 31.6 NW | 325 3.0 7.0 NW | 311
5/5/26 - 1405 39.4 39 16.4 31.7 NW | 316 4.3 7.8 NW | 305
5/5/26 - 1400 39.9 39 16.7 32.1 NNW | 328 4.6 9.8 NW | 324
5/5/26 - 1355 40.3 38 16.7 32.3 NW | 320 5.4 8.8 NW | 306
5/5/26 - 1350 41.2 37 16.9 32.9 NNE | 15 2.6 7.5 NE | 38
5/5/26 - 1345 40.2 37 16.0 32.1 NNE | 18 3.0 7.2 NNW | 342
5/5/26 - 1340 39.8 38 16.0 31.8 N | 351 2.3 6.6 N | 353
5/5/26 - 1335 38.0 36 13.7 30.3 NNE | 19 4.4 8.9 NNE | 31
5/5/26 - 1330 38.2 37 14.3 30.6 N | 11 3.4 6.9 NNE | 28
5/5/26 - 1325 38.8 38 15.4 31.1 NNW | 339 3.6 8.1 NW | 318
5/5/26 - 1320 39.0 36 14.6 31.1 NE | 34 1.6 4.3 NE | 34
5/5/26 - 1315 38.1 37 14.2 30.4 N | 358 1.9 5.4 NNE | 28
5/5/26 - 1310 37.8 37 13.7 30.1 N | 3 1.6 6.3 NNE | 27
5/5/26 - 1305 37.1 36 12.7 29.5 NNE | 15 1.7 4.6 NE | 52
5/5/26 - 1300 37.1 37 13.5 29.7 NNE | 20 3.0 7.3 NNE | 16
5/5/26 - 1255 37.4 38 14.4 30.1 NNW | 348 1.7 3.8 N | 5
5/5/26 - 1250 38.1 38 14.9 30.6 NW | 308 1.4 9.4 NW | 310
5/5/26 - 1245 37.3 38 14.0 29.9 NNW | 341 3.5 10.0 NW | 315
5/5/26 - 1240 37.9 38 14.5 30.4 N | 7 0.6 3.8 NE | 48
5/5/26 - 1235 37.2 38 14.0 29.8 NW | 323 2.5 8.5 NW | 309
5/5/26 - 1230 36.6 38 13.2 29.3 N | 356 2.2 5.4 NNE | 15
5/5/26 - 1225 36.6 38 13.6 29.4 N | 350 3.9 8.8 NNW | 327
5/5/26 - 1220 35.9 39 13.4 28.9 NNW | 346 2.4 7.8 NW | 320
5/5/26 - 1215 35.0 39 12.7 28.2 NNW | 331 3.6 7.0 NW | 310
5/5/26 - 1210 34.7 40 12.6 28.0 NW | 322 3.2 5.8 NW | 322
5/5/26 - 1205 34.6 39 12.2 27.9 NNW | 331 3.5 9.8 NW | 308
5/5/26 - 1200 34.5 39 12.2 27.8 NW | 317 3.6 6.6 NW | 305
5/5/26 - 1155 34.7 38 11.9 27.9 NNW | 347 0.8 3.4 NW | 316
5/5/26 - 1150 34.7 39 12.1 27.9 NNW | 340 0.0 0.5 N | 0
5/5/26 - 1145 34.5 38 11.4 27.6 NNW | 334 0.2 2.1 NNW | 328
5/5/26 - 1140 34.0 38 11.0 27.2 W | 261 0.1 1.7 WSW | 256
5/5/26 - 1135 33.7 37 10.3 26.9 N | 11 0.1 0.9 NNE | 31
5/5/26 - 1130 33.8 39 11.2 27.2 NW | 321 0.3 1.6 W | 278
5/5/26 - 1125 33.5 41 12.1 27.2 NNW | 329 1.6 4.5 WNW | 300
5/5/26 - 1120 33.6 41 12.3 27.3 NW | 315 1.0 3.8 NNW | 331
5/5/26 - 1115 33.5 40 12.0 27.2 NW | 318 1.0 5.2 NW | 311
5/5/26 - 1110 33.5 40 11.7 27.1 NNW | 333 0.5 2.6 NNE | 21
5/5/26 - 1105 33.3 39 11.3 26.9 NW | 318 0.8 3.5 WNW | 302
5/5/26 - 1100 33.2 38 10.4 26.6 N | 10 1.7 4.2 N | 5
5/5/26 - 1055 33.1 40 11.3 26.7 NNW | 334 3.0 6.8 WNW | 300
5/5/26 - 1050 33.1 40 11.4 26.7 NW | 310 2.0 5.7 NW | 318
5/5/26 - 1045 33.1 41 11.8 26.8 NW | 320 2.5 7.4 NW | 315
5/5/26 - 1040 33.2 40 11.4 26.8 NW | 312 1.1 4.4 NW | 307
5/5/26 - 1035 33.3 40 11.3 26.9 NNW | 332 1.5 5.1 NW | 317
5/5/26 - 1030 33.3 39 11.1 26.8 NNW | 336 3.1 6.5 NW | 311
5/5/26 - 1025 33.5 40 11.7 27.1 NNW | 345 1.3 3.0 NE | 34
5/5/26 - 1020 33.5 41 12.5 27.2 NNW | 346 0.7 2.8 NNW | 348
5/5/26 - 1015 33.9 41 12.4 27.5 NW | 312 0.7 2.4 NNW | 340
5/5/26 - 1010 33.6 40 12.1 27.2 NNW | 329 0.8 2.5 NW | 305
5/5/26 - 1005 33.6 39 11.6 27.1 NNW | 333 0.2 1.3 NNW | 340
5/5/26 - 1000 33.5 40 11.7 27.1 N | 355 0.7 3.4 NNW | 348
5/5/26 - 0955 33.4 40 11.9 27.0 NNW | 330 2.8 5.3 NNW | 335
5/5/26 - 0950 33.5 40 12.0 27.1 NNW | 339 1.4 3.8 NNW | 333
5/5/26 - 0945 33.6 41 12.4 27.3 NW | 316 0.4 2.1 WNW | 300
5/5/26 - 0940 33.5 40 12.1 27.2 NW | 322 0.8 3.2 N | 2
5/5/26 - 0935 33.5 40 11.8 27.1 NW | 315 0.8 3.3 NW | 309
5/5/26 - 0930 33.2 40 11.2 26.8 NW | 312 0.4 1.6 WNW | 302
Max 50.2 41 25.0 39.9 - 6.3 13.9 -
Avg 39.3 38 15.7 31.4 - 1.6 4.6 -
Min 33.1 34 10.3 26.6 - 0.0 0.0 -